Latest Weather Observations for Maatsuyker Island

IDT60801

Issued at 10:02 am EST Wednesday 20 September 2017 (issued every 30 minutes, with the page automatically refreshed every 10 minutes)

About weather observations | Map of weather stations | Latest weather observations for TAS | Other Formats
Station Details ID: 094041 Name: MAATSUYKER ISLAND LIGHTHOUSE Lat: -43.66 Lon: 146.27 Height: 146.5 m
Data from the previous 72 hours. | See also: Recent months at Maatsuyker Island
Date/Time
EST
Temp
°C
App
Temp
°C
Dew
Point
°C
Rel
Hum
%
Delta-T
°C
Wind Press
QNH
hPa
Press
MSL
hPa
Rain since
9am
mm
Dir  Spd
km/h
Gust
km/h
Spd
kts
Gust
kts
20/10:00am 9.1 2.8 5.6 79 1.6 NNW 28 37 15 20 1014.4 - 0.0
20/09:30am 8.5 1.8 5.4 81 1.4 NNW 30 39 16 21 1014.6 - 0.0
20/09:00am 8.4 1.7 5.8 84 1.2 NNW 30 39 16 21 1014.9 1015.1 0.6
20/08:30am 7.9 1.1 5.2 83 1.2 NNW 30 41 16 22 1014.9 - 0.6
20/08:00am 7.7 1.3 5.0 83 1.2 NNW 28 39 15 21 1015.1 - 0.6
20/07:30am 7.6 0.8 4.9 83 1.2 NNW 30 39 16 21 1014.9 - 0.6
20/07:00am 7.3 0.8 4.8 84 1.1 NNW 28 35 15 19 1015.0 - 0.6
20/06:30am 7.2 1.4 4.5 83 1.2 NNW 24 33 13 18 1015.1 - 0.6
20/06:00am 6.8 0.3 4.5 85 1.0 NNW 28 37 15 20 1015.0 1015.2 0.6
20/05:30am 6.9 0.0 4.4 84 1.1 NNW 30 39 16 21 1014.9 - 0.6
20/05:00am 6.4 0.3 4.6 88 0.8 NNW 26 35 14 19 1015.1 - 0.6
20/04:30am 6.3 0.1 4.5 88 0.8 NNW 26 35 14 19 1015.2 - 0.6
20/04:00am 6.7 0.4 3.9 82 1.2 NNW 26 37 14 20 1015.2 - 0.6
20/03:30am 6.5 1.0 3.9 83 1.1 NNW 22 33 12 18 1015.4 - 0.6
20/03:00am 6.5 1.0 4.2 85 1.0 NNW 22 30 12 16 1015.7 1015.9 0.6
20/02:52am 6.5 1.3 3.7 82 1.2 NNW 20 32 11 17 1015.6 - 0.6
20/02:30am 7.0 -2.2 3.5 78 1.5 NW 41 46 22 25 1015.7 - 0.6
20/02:00am 6.9 -2.0 2.9 76 1.7 NW 39 46 21 25 1015.9 - 0.6
20/01:30am 7.5 -0.8 1.9 67 2.3 NW 35 43 19 23 1016.0 - 0.6
20/01:00am 7.1 -1.9 2.3 71 2.0 NW 39 43 21 23 1016.4 - 0.6
20/12:30am 7.5 -1.5 2.2 69 2.2 NW 39 46 21 25 1016.4 - 0.6
20/12:00am 7.2 -2.7 1.6 67 2.3 NW 43 46 23 25 1016.2 1016.4 0.6
 
Date/Time
EST
Temp
°C
App
Temp
°C
Dew
Point
°C
Rel
Hum
%
Delta-T
°C
Wind Press
QNH
hPa
Press
MSL
hPa
Rain since
9am
mm
Dir  Spd
km/h
Gust
km/h
Spd
kts
Gust
kts
19/11:30pm 7.0 -1.7 1.9 70 2.1 WNW 37 44 20 24 1016.4 - 0.6
19/11:00pm 6.7 -1.6 -0.3 61 2.7 WNW 33 43 18 23 1016.8 - 0.6
19/10:30pm 7.3 -1.6 -1.7 53 3.4 WNW 35 46 19 25 1016.7 - 0.6
19/10:00pm 7.2 -2.3 -0.5 58 3.0 WNW 39 46 21 25 1016.7 - 0.6
19/09:30pm 7.3 -1.4 -0.4 58 3.0 WNW 35 44 19 24 1016.8 - 0.6
19/09:00pm 7.3 -0.7 0.5 62 2.7 WNW 32 41 17 22 1016.7 1016.8 0.6
19/08:30pm 7.1 -0.9 1.7 68 2.2 WNW 33 39 18 21 1016.4 - 0.6
19/08:20pm 6.7 -1.0 -0.3 61 2.7 W 30 50 16 27 1016.5 - 0.6
19/08:00pm 6.9 -3.9 2.0 71 2.0 NW 48 56 26 30 1015.8 - 0.6
19/07:30pm 6.9 -2.7 0.9 65 2.4 WNW 41 46 22 25 1015.8 - 0.6
19/07:05pm 6.8 -5.6 1.4 68 2.2 WNW 56 61 30 33 1015.2 - 0.6
19/07:00pm 7.0 -1.1 1.3 67 2.3 WNW 33 52 18 28 1015.3 - 0.6
19/06:36pm 7.0 -1.9 0.7 64 2.5 W 37 57 20 31 1015.4 - 0.6
19/06:30pm 7.4 -1.1 0.7 62 2.7 W 35 44 19 24 1015.3 - 0.6
19/06:00pm 7.4 -1.1 0.7 62 2.7 WNW 35 50 19 27 1014.8 1014.8 0.6
19/05:33pm 7.0 -1.0 0.4 63 2.6 W 32 52 17 28 1014.6 - 0.6
19/05:30pm 6.9 -0.3 0.9 65 2.4 W 28 41 15 22 1014.5 - 0.6
19/05:25pm 6.4 -1.4 1.5 71 2.0 WSW 32 50 17 27 1014.5 - 0.6
19/05:15pm 6.7 -2.9 1.2 68 2.2 WSW 41 50 22 27 1014.5 - 0.6
19/05:00pm 7.2 -2.4 1.0 65 2.5 WNW 41 56 22 30 1014.3 - 0.6
19/04:30pm 7.0 -4.9 1.9 70 2.1 WNW 54 69 29 37 1014.0 - 0.6
19/04:18pm 7.4 -2.5 2.9 73 1.9 WNW 44 65 24 35 1013.3 - 0.6
19/04:00pm 7.5 -1.0 0.8 62 2.7 W 35 46 19 25 1013.5 - 0.6
19/03:30pm 7.4 -2.4 2.1 69 2.2 WSW 43 56 23 30 1013.2 - 0.6
19/03:23pm 8.0 -2.0 2.3 67 2.4 WSW 44 56 24 30 1013.2 - 0.6
19/03:00pm 8.0 -2.3 -0.7 54 3.4 W 43 50 23 27 1012.8 1012.9 0.6
19/02:34pm 7.8 -1.5 0.9 61 2.8 W 39 57 21 31 1012.7 - 0.6
19/02:30pm 7.5 -1.5 0.2 60 2.9 W 37 52 20 28 1012.6 - 0.6
19/02:00pm 7.0 -2.4 2.2 71 2.0 W 41 61 22 33 1012.5 - 0.6
19/01:50pm 7.3 -2.7 2.3 70 2.1 WSW 44 63 24 34 1012.4 - 0.6
19/01:32pm 8.5 -2.2 0.3 56 3.3 WNW 46 65 25 35 1011.8 - 0.6
19/01:30pm 8.5 -2.2 0.0 55 3.4 WNW 46 57 25 31 1011.8 - 0.6
19/01:00pm 6.9 -4.1 0.6 64 2.5 WNW 48 57 26 31 1011.7 - 0.6
19/12:40pm 7.5 -2.3 2.0 68 2.3 W 43 61 23 33 1011.4 - 0.6
19/12:30pm 7.5 -2.2 0.8 62 2.7 W 41 56 22 30 1011.2 - 0.6
19/12:00pm 7.1 -2.4 1.7 68 2.2 W 41 56 22 30 1010.9 1011.0 0.6
19/11:40am 6.6 -0.1 3.6 81 1.3 W 28 48 15 26 1010.8 - 0.6
19/11:30am 6.3 -3.3 3.5 82 1.2 WNW 43 61 23 33 1010.4 - 0.6
19/11:24am 5.4 -5.7 2.5 81 1.2 WNW 50 69 27 37 1010.3 - 0.6
19/11:16am 5.7 -6.7 2.8 81 1.2 W 57 69 31 37 1010.4 - 0.0
19/11:14am 6.5 -2.8 2.7 77 1.6 WSW 41 61 22 33 1010.4 - 0.0
19/11:13am 6.8 -2.2 2.5 74 1.8 WSW 39 59 21 32 1010.4 - 0.0
19/11:00am 7.8 -3.1 1.5 64 2.6 WNW 48 63 26 34 1010.1 - 0.0
19/10:44am 7.3 -3.2 1.4 66 2.4 W 46 65 25 35 1010.1 - 0.0
19/10:30am 6.9 -4.9 2.6 74 1.8 WNW 54 69 29 37 1009.0 - 0.0
19/10:24am 7.3 -2.4 2.8 73 1.9 W 43 61 23 33 1009.6 - 0.0
19/10:00am 7.3 -2.9 -0.1 59 2.9 W 43 54 23 29 1009.7 - 0.0
19/09:38am 6.9 -2.4 0.6 64 2.5 W 39 57 21 31 1009.4 - 0.0
19/09:30am 6.5 -2.0 1.0 68 2.2 W 35 46 19 25 1009.1 - 0.0
19/09:00am 6.9 -2.3 1.5 68 2.2 W 39 63 21 34 1008.8 1008.9 15.2
19/08:37am 6.7 -3.0 0.7 65 2.4 W 41 59 22 32 1008.4 - 15.2
19/08:30am 7.0 -2.0 2.2 71 2.0 W 39 54 21 29 1008.3 - 15.2
19/08:19am 6.8 -2.3 2.0 71 2.0 W 39 57 21 31 1008.1 - 15.2
19/08:00am 6.6 -4.0 0.9 67 2.3 W 46 61 25 33 1007.8 - 15.2
19/07:30am 6.8 -3.6 2.2 72 1.9 W 46 67 25 36 1007.4 - 15.2
19/07:07am 6.6 -3.7 0.3 64 2.5 W 44 63 24 34 1006.8 - 15.2
19/07:00am 6.5 -4.6 -0.2 62 2.6 W 48 63 26 34 1006.7 - 15.2
19/06:33am 6.7 -3.3 2.4 74 1.8 W 44 63 24 34 1006.0 - 15.2
19/06:30am 6.7 -3.3 2.4 74 1.8 W 44 59 24 32 1005.9 - 15.2
19/06:00am 6.7 -3.9 3.2 78 1.5 WSW 48 67 26 36 1004.9 1005.0 15.0
19/05:31am 6.6 -3.7 4.6 87 0.9 SW 48 67 26 36 1004.1 - 14.8
19/05:30am 6.5 -4.2 4.4 86 0.9 SW 50 67 27 36 1004.0 - 14.8
19/05:01am 6.6 -4.0 5.3 91 0.6 SW 50 69 27 37 1003.3 - 14.4
19/05:00am 6.9 -3.3 5.3 89 0.7 SW 48 65 26 35 1003.3 - 14.4
19/04:35am 6.8 -5.0 5.5 91 0.6 WSW 57 70 31 38 1002.6 - 14.4
19/04:30am 6.8 -1.2 5.7 93 0.5 WSW 37 56 20 30 1002.5 - 14.0
19/04:03am 6.7 -2.2 5.1 89 0.7 W 41 59 22 32 1001.7 - 13.4
19/04:00am 6.5 -2.1 4.9 89 0.7 W 39 56 21 30 1001.6 - 13.4
19/03:53am 6.3 -2.3 4.9 91 0.6 W 39 57 21 31 1001.4 - 13.4
19/03:30am 6.7 -3.9 5.1 89 0.7 WSW 50 63 27 34 1000.6 - 12.8
19/03:03am 7.7 0.9 6.8 94 0.4 SW 32 50 17 27 999.6 - 12.6
19/03:00am 7.6 0.7 6.3 91 0.6 SW 32 39 17 21 999.5 999.6 12.6
19/02:45am 7.7 2.5 7.1 96 0.3 W 24 54 13 29 999.3 - 12.6
19/02:30am 7.6 -0.6 6.7 94 0.4 NNW 39 48 21 26 998.7 - 11.4
19/02:07am 7.7 -0.4 6.8 94 0.4 N 39 80 21 43 998.3 - 10.2
19/02:05am 7.6 -4.3 7.0 96 0.3 NNW 59 80 32 43 998.1 - 10.0
19/02:00am 8.3 -5.4 7.3 93 0.5 NW 69 80 37 43 997.5 - 9.2
19/01:59am 9.3 1.8 7.9 91 0.7 NNW 37 80 20 43 998.2 - 9.2
19/01:58am 9.2 2.0 7.8 91 0.7 NNW 35 56 19 30 998.5 - 9.0
19/01:30am 8.7 1.8 7.4 91 0.6 NNW 33 46 18 25 998.6 - 9.0
19/01:00am 8.6 3.8 7.3 91 0.6 N 22 28 12 15 999.2 - 8.2
19/12:30am 8.3 2.4 7.7 96 0.3 NNW 28 39 15 21 999.3 - 8.0
19/12:00am 8.7 3.8 8.5 99 0.1 NNW 24 32 13 17 999.4 999.5 7.4
 
Date/Time
EST
Temp
°C
App
Temp
°C
Dew
Point
°C
Rel
Hum
%
Delta-T
°C
Wind Press
QNH
hPa
Press
MSL
hPa
Rain since
9am
mm
Dir  Spd
km/h
Gust
km/h
Spd
kts
Gust
kts
18/11:30pm 8.7 3.8 8.5 99 0.1 NNW 24 32 13 17 1000.2 - 6.8
18/11:00pm 8.8 5.2 8.4 97 0.2 NNW 17 22 9 12 1000.6 - 5.2
18/10:30pm 8.6 4.4 8.2 97 0.2 NNW 20 28 11 15 1000.6 - 4.6
18/10:00pm 8.6 4.1 8.4 99 0.1 NNW 22 30 12 16 1001.0 - 3.8
18/09:30pm 8.7 3.0 8.3 97 0.2 NNW 28 37 15 20 1001.0 - 2.6
18/09:00pm 9.0 4.3 7.8 92 0.6 NNW 22 30 12 16 1000.9 1001.0 1.0
18/08:30pm 9.0 3.6 7.8 92 0.6 NNW 26 32 14 17 1000.8 - 0.6
18/08:00pm 9.3 1.7 7.4 88 0.9 NNW 37 43 20 23 1000.6 - 0.6
18/07:30pm 9.2 0.8 7.5 89 0.8 NNW 41 52 22 28 1000.5 - 0.6
18/07:00pm 9.5 0.8 7.9 90 0.8 NNW 43 50 23 27 1000.4 - 0.6
18/06:30pm 9.3 0.7 8.7 96 0.3 NNW 44 54 24 29 1000.2 - 0.6
18/06:00pm 10.3 0.2 8.9 91 0.7 NNW 52 78 28 42 999.4 999.5 0.4
18/05:34pm 10.9 0.5 7.8 81 1.5 NNW 52 70 28 38 999.3 - 0.2
18/05:30pm 10.9 0.5 7.8 81 1.5 NNW 52 65 28 35 999.4 - 0.2
18/05:17pm 10.8 0.4 7.7 81 1.5 NNW 52 72 28 39 999.1 - 0.0
18/05:00pm 10.7 0.7 7.8 82 1.4 NNW 50 65 27 35 999.3 - 0.0
18/04:30pm 11.3 0.4 7.2 76 2.0 NNW 54 72 29 39 999.0 - 0.0
18/04:00pm 11.2 0.6 7.1 76 2.0 NNW 52 78 28 42 999.1 - 0.0
18/03:30pm 12.3 0.5 5.8 64 3.1 NNW 57 76 31 41 998.9 - 0.0
18/03:06pm 12.3 0.7 5.8 64 3.1 NNW 56 76 30 41 998.7 - 0.0
18/03:00pm 12.4 0.9 6.1 65 3.0 NNW 56 72 30 39 999.3 999.4 0.0
18/02:30pm 13.4 1.6 5.9 60 3.6 NNW 57 76 31 41 999.3 - 0.0
18/02:00pm 12.7 1.6 6.5 66 3.0 NNW 54 78 29 42 999.7 - 0.0
18/01:36pm 12.3 2.9 7.2 71 2.5 NNW 46 65 25 35 1000.0 - 0.0
18/01:30pm 12.3 2.9 7.2 71 2.5 NNW 46 63 25 34 1000.6 - 0.0
18/01:02pm 12.9 3.2 6.0 63 3.3 NNW 46 69 25 37 1000.7 - 0.0
18/01:00pm 13.0 3.4 6.1 63 3.3 NNW 46 59 25 32 1000.7 - 0.0
18/12:30pm 12.9 3.8 6.7 66 3.0 NNW 44 67 24 36 1001.3 - 0.0
18/12:00pm 13.8 0.5 5.9 59 3.8 NNW 65 96 35 52 1000.8 1000.9 0.0
18/11:30am 15.4 2.7 4.9 49 5.0 NNW 61 82 33 44 1001.0 - 0.0
18/11:00am 16.7 3.7 3.4 41 6.2 NNW 61 80 33 43 1000.7 - 0.0
18/10:30am 17.6 6.8 2.1 35 7.1 NNW 48 74 26 40 1001.1 - 0.0
18/10:03am 17.2 8.5 1.8 35 6.9 NNW 37 59 20 32 1001.8 - 0.0
18/10:00am 16.3 7.8 3.1 41 6.1 NNW 37 48 20 26 1002.0 - 0.0
18/09:34am 16.0 6.5 1.7 38 6.4 N 41 59 22 32 1002.4 - 0.0
18/09:30am 15.9 6.1 2.2 39 6.2 N 43 59 23 32 1002.3 - 0.0
18/09:00am 15.6 5.5 1.4 38 6.3 NNW 44 63 24 34 1002.6 1002.6 0.2
18/08:30am 15.1 5.1 1.2 39 6.1 N 43 61 23 33 1003.0 - 0.2
18/08:20am 14.8 5.3 1.7 41 5.8 N 41 59 22 32 1003.3 - 0.2
18/08:00am 14.6 4.1 1.7 41 5.7 NNW 46 61 25 33 1003.5 - 0.2
18/07:31am 15.1 4.4 0.2 36 6.4 NNW 46 67 25 36 1003.4 - 0.2
18/07:30am 15.0 4.3 0.4 37 6.3 NNW 46 59 25 32 1003.5 - 0.2
18/07:13am 14.8 3.8 0.8 38 6.1 NNW 48 72 26 39 1003.3 - 0.2
18/07:00am 14.4 4.3 1.4 41 5.7 NNW 44 59 24 32 1003.7 - 0.2
18/06:30am 14.4 3.1 1.4 41 5.7 NNW 50 72 27 39 1003.8 - 0.2
18/06:20am 14.4 3.8 1.1 40 5.8 NNW 46 65 25 35 1003.5 - 0.2
18/06:00am 14.1 2.4 1.3 41 5.6 N 52 69 28 37 1003.3 1003.3 0.2
18/05:30am 14.2 2.9 1.1 41 5.7 N 50 72 27 39 1003.5 - 0.2
18/05:00am 13.9 2.7 1.6 43 5.4 NNW 50 69 27 37 1003.9 - 0.2
18/04:30am 14.1 2.1 1.6 42 5.5 NNW 54 72 29 39 1004.4 - 0.2
18/04:00am 13.8 1.9 2.0 44 5.2 NNW 54 72 29 39 1004.9 - 0.2
18/03:30am 13.5 2.0 2.2 46 5.0 NNW 52 70 28 38 1005.1 - 0.2
18/03:00am 13.6 2.0 1.7 44 5.2 NNW 52 70 28 38 1005.4 1005.5 0.2
18/02:57am 13.5 1.9 1.9 45 5.1 NNW 52 70 28 38 1005.3 - 0.2
18/02:30am 13.6 1.6 1.7 44 5.2 NNW 54 69 29 37 1005.8 - 0.2
18/02:00am 13.5 1.9 1.9 45 5.1 NNW 52 70 28 38 1006.3 - 0.2
18/01:30am 13.3 2.2 2.2 47 4.9 NNW 50 69 27 37 1007.0 - 0.2
18/01:01am 13.4 2.1 1.4 44 5.2 NNW 50 69 27 37 1007.4 - 0.2
18/01:00am 13.4 2.1 1.1 43 5.3 NNW 50 65 27 35 1007.4 - 0.2
18/12:30am 12.9 2.0 1.6 46 4.9 NNW 48 61 26 33 1007.8 - 0.2
18/12:00am 12.7 2.1 1.0 45 5.0 NNW 46 61 25 33 1008.0 1008.1 0.2
 
Date/Time
EST
Temp
°C
App
Temp
°C
Dew
Point
°C
Rel
Hum
%
Delta-T
°C
Wind Press
QNH
hPa
Press
MSL
hPa
Rain since
9am
mm
Dir  Spd
km/h
Gust
km/h
Spd
kts
Gust
kts
17/11:30pm 12.7 1.6 -0.3 40 5.4 NNW 48 63 26 34 1008.7 - 0.2
17/11:00pm 12.3 1.8 -1.0 39 5.4 NNW 44 59 24 32 1008.7 - 0.2
17/10:30pm 12.1 1.6 -0.9 40 5.3 NNW 44 59 24 32 1009.8 - 0.2
17/10:15pm 12.1 1.2 -0.9 40 5.3 NNW 46 65 25 35 1009.5 - 0.2
17/10:00pm 12.0 1.7 -0.8 41 5.2 NNW 43 59 23 32 1010.2 - 0.2
17/09:30pm 11.8 1.9 -0.7 42 5.1 NNW 41 59 22 32 1010.5 - 0.2
17/09:00pm 11.7 2.7 -0.2 44 4.9 NNW 37 56 20 30 1010.9 1011.0 0.2
17/08:57pm 11.8 3.1 -0.7 42 5.1 NNW 35 56 19 30 1011.0 - 0.2
17/08:30pm 11.4 2.4 0.3 46 4.6 NNW 37 54 20 29 1011.3 - 0.2
17/08:00pm 11.4 3.4 1.9 52 4.1 NNW 33 44 18 24 1011.9 - 0.2
17/07:30pm 11.3 4.4 2.3 54 3.9 NNW 28 41 15 22 1012.4 - 0.2
17/07:00pm 11.4 4.0 3.8 59 3.4 NNW 32 43 17 23 1012.7 - 0.2
17/06:30pm 11.7 5.3 3.4 56 3.7 N 26 37 14 20 1012.8 - 0.2
17/06:00pm 11.8 5.4 3.0 55 3.9 N 26 41 14 22 1013.1 1013.2 0.2
17/05:30pm 11.7 5.7 3.1 55 3.8 N 24 41 13 22 1013.4 - 0.2
17/05:00pm 11.5 6.3 3.7 58 3.5 N 20 28 11 15 1013.6 - 0.2
17/04:30pm 11.5 6.4 3.9 59 3.4 N 20 30 11 16 1013.8 - 0.2
17/04:00pm 11.4 5.6 4.3 61 3.2 NNW 24 33 13 18 1014.0 - 0.2
17/03:30pm 11.5 6.2 5.2 65 2.9 NNW 22 32 12 17 1014.3 - 0.2
17/03:00pm 11.2 4.4 4.9 65 2.9 NNW 30 41 16 22 1014.6 1014.7 0.2
17/02:30pm 11.3 5.2 4.7 64 3.0 NNW 26 35 14 19 1015.1 - 0.2
17/02:00pm 11.2 5.0 4.4 63 3.1 NNW 26 37 14 20 1015.3 - 0.2
17/01:30pm 11.2 4.6 4.3 62 3.1 NNW 28 37 15 20 1016.1 - 0.2
17/01:00pm 11.1 4.6 4.5 64 3.0 NNW 28 37 15 20 1016.7 - 0.2
17/12:30pm 10.3 3.7 4.0 65 2.8 NNW 28 37 15 20 1017.5 - 0.2
17/12:00pm 9.8 3.1 3.7 66 2.7 NNW 28 35 15 19 1018.0 1018.1 0.2
17/11:30am 9.8 2.8 3.9 66 2.6 NNW 30 41 16 22 1018.3 - 0.2
17/11:00am 9.7 2.6 3.8 66 2.6 NNW 30 41 16 22 1018.7 - 0.2
17/10:30am 9.1 0.6 3.1 66 2.6 NNW 37 48 20 26 1019.0 - 0.2

Other Formats:

Comma delimited format used in spreadsheet applications
http://www.bom.gov.au/fwo/IDT60801/IDT60801.94962.axf

JavaScript Object Notation format (JSON) in row-major order
http://www.bom.gov.au/fwo/IDT60801/IDT60801.94962.json